createdAt,value
2022-10-13T00:00:47.759Z,16.41
2022-10-13T00:02:49.647Z,16.40
2022-10-13T00:04:51.279Z,16.46
2022-10-13T00:06:52.898Z,16.46
2022-10-13T00:08:55.041Z,16.43
2022-10-13T00:10:56.814Z,16.43
2022-10-13T00:12:58.767Z,16.43
2022-10-13T00:15:00.427Z,16.40
2022-10-13T00:17:02.086Z,16.37
2022-10-13T00:19:06.069Z,16.41
2022-10-13T00:21:13.269Z,16.45
2022-10-13T00:23:16.135Z,16.45
2022-10-13T00:25:17.941Z,16.43
2022-10-13T00:27:20.217Z,16.40
2022-10-13T00:29:22.061Z,16.40
2022-10-13T00:31:28.005Z,16.42
2022-10-13T00:33:29.862Z,16.39
2022-10-13T00:35:31.697Z,16.38
2022-10-13T00:37:33.408Z,16.38
2022-10-13T00:39:35.031Z,16.33
2022-10-13T00:41:36.776Z,16.40
2022-10-13T00:43:53.848Z,16.41
2022-10-13T00:45:55.467Z,16.45
2022-10-13T00:48:00.790Z,16.48
2022-10-13T00:50:03.103Z,16.45
2022-10-13T00:52:04.806Z,16.32
2022-10-13T00:54:09.734Z,16.35
2022-10-13T00:56:14.117Z,16.35
2022-10-13T00:58:19.542Z,16.38
2022-10-13T01:00:23.900Z,16.39
2022-10-13T01:02:31.584Z,16.36
2022-10-13T01:04:45.273Z,16.38
2022-10-13T01:06:46.921Z,16.37
2022-10-13T01:08:48.673Z,16.38
2022-10-13T01:11:05.655Z,16.26
2022-10-13T01:13:26.119Z,16.34
2022-10-13T01:16:01.594Z,16.36
2022-10-13T01:18:15.182Z,16.36
2022-10-13T01:20:54.635Z,16.37
2022-10-13T01:23:30.241Z,16.36
2022-10-13T01:26:33.306Z,16.32
2022-10-13T01:29:13.891Z,16.30
2022-10-13T01:31:40.338Z,16.32
2022-10-13T01:34:07.390Z,16.33
2022-10-13T01:36:26.807Z,16.33
2022-10-13T01:38:50.299Z,16.33
2022-10-13T01:41:05.670Z,16.33
2022-10-13T01:43:30.774Z,16.34
2022-10-13T01:45:38.808Z,16.36
2022-10-13T01:47:42.336Z,16.40
2022-10-13T01:49:45.253Z,16.39
2022-10-13T01:51:49.809Z,16.44
2022-10-13T01:53:51.658Z,16.40
2022-10-13T01:55:57.255Z,16.41
2022-10-13T01:57:59.004Z,16.40
2022-10-13T02:00:06.558Z,16.44
2022-10-13T02:02:22.526Z,16.44
2022-10-13T02:04:37.527Z,16.42
2022-10-13T02:06:52.076Z,16.31
2022-10-13T02:09:13.815Z,16.35
2022-10-13T02:11:21.569Z,16.35
2022-10-13T02:13:26.706Z,16.27
2022-10-13T02:15:35.359Z,16.32
2022-10-13T02:17:37.335Z,16.32
2022-10-13T02:19:40.248Z,16.34
2022-10-13T02:21:42.460Z,16.36
2022-10-13T02:23:45.454Z,16.37
2022-10-13T02:25:48.569Z,16.38
2022-10-13T02:27:50.662Z,16.39
2022-10-13T02:29:55.020Z,16.41
2022-10-13T02:31:56.733Z,16.42
2022-10-13T02:33:58.458Z,16.41
2022-10-13T02:36:00.112Z,16.38
2022-10-13T02:38:01.749Z,16.35
2022-10-13T02:40:04.037Z,16.35
2022-10-13T02:42:05.990Z,16.39
2022-10-13T02:44:07.837Z,16.37
2022-10-13T02:46:09.591Z,16.37
2022-10-13T02:48:11.232Z,16.41
2022-10-13T02:50:12.891Z,16.38
2022-10-13T02:52:14.818Z,16.43
2022-10-13T02:54:16.458Z,16.44
2022-10-13T02:56:19.281Z,16.44
2022-10-13T02:58:20.977Z,16.41
2022-10-13T03:00:22.700Z,16.39
2022-10-13T03:02:26.002Z,16.38
2022-10-13T03:04:27.700Z,16.38
2022-10-13T03:06:29.318Z,16.39
2022-10-13T03:08:33.324Z,16.35
2022-10-13T03:10:35.137Z,16.35
2022-10-13T03:12:36.875Z,16.32
2022-10-13T03:14:38.494Z,16.33
2022-10-13T03:16:40.161Z,16.34
2022-10-13T03:18:41.778Z,16.33
2022-10-13T03:20:43.461Z,16.34
2022-10-13T03:22:49.532Z,16.33
2022-10-13T03:24:51.971Z,16.35
2022-10-13T03:26:53.607Z,16.32
2022-10-13T03:28:55.203Z,16.31
2022-10-13T03:31:08.332Z,16.33
2022-10-13T03:33:09.970Z,16.32
2022-10-13T03:35:11.646Z,16.32
2022-10-13T03:37:13.385Z,16.27
2022-10-13T03:39:15.132Z,16.31
2022-10-13T03:41:18.832Z,16.32
2022-10-13T03:43:20.435Z,16.28
2022-10-13T03:45:22.141Z,16.29
2022-10-13T03:47:23.811Z,16.29
2022-10-13T03:49:25.587Z,16.29
2022-10-13T03:51:27.252Z,16.29
2022-10-13T03:53:28.927Z,16.28
2022-10-13T03:55:30.534Z,16.25
2022-10-13T03:57:32.197Z,16.25
2022-10-13T03:59:36.785Z,16.24
2022-10-13T04:01:39.636Z,16.25
2022-10-13T04:03:41.322Z,16.26
2022-10-13T04:05:43.673Z,16.25
2022-10-13T04:07:45.299Z,16.25
2022-10-13T04:09:46.971Z,16.26
2022-10-13T04:11:53.045Z,16.26
2022-10-13T04:13:56.825Z,16.26
2022-10-13T04:16:07.044Z,16.29
2022-10-13T04:18:09.224Z,16.28
2022-10-13T04:20:11.242Z,16.29
2022-10-13T04:22:12.853Z,16.24
2022-10-13T04:24:15.046Z,16.22
2022-10-13T04:26:19.664Z,16.22
2022-10-13T04:28:21.418Z,16.23
2022-10-13T04:30:23.058Z,16.19
2022-10-13T04:32:24.941Z,16.21
2022-10-13T04:34:26.551Z,16.19
2022-10-13T04:36:28.323Z,16.20
2022-10-13T04:38:30.041Z,16.19
2022-10-13T04:40:31.878Z,16.16
2022-10-13T04:42:34.106Z,16.18
2022-10-13T04:44:35.749Z,16.16
2022-10-13T04:46:37.362Z,16.15
2022-10-13T04:48:39.211Z,16.17
2022-10-13T04:50:40.996Z,16.17
2022-10-13T04:52:42.616Z,16.10
2022-10-13T04:54:44.535Z,16.10
2022-10-13T04:56:46.378Z,16.01
2022-10-13T04:58:48.213Z,16.05
2022-10-13T05:00:50.204Z,16.05
2022-10-13T05:02:51.908Z,16.05
2022-10-13T05:04:53.559Z,16.02
2022-10-13T05:07:19.209Z,16.01
2022-10-13T05:09:17.670Z,16.03
2022-10-13T05:11:22.526Z,16.03
2022-10-13T05:13:25.164Z,16.04
2022-10-13T05:15:26.935Z,16.05
2022-10-13T05:17:35.019Z,16.09
2022-10-13T05:19:37.204Z,16.08
2022-10-13T05:21:39.127Z,16.10
2022-10-13T05:23:42.135Z,16.12
2022-10-13T05:25:43.816Z,16.16
2022-10-13T05:27:47.326Z,16.14
2022-10-13T05:29:48.945Z,16.14
2022-10-13T05:31:50.591Z,16.15
2022-10-13T05:33:52.901Z,16.16
2022-10-13T05:35:54.531Z,16.19
2022-10-13T05:37:56.237Z,16.17
2022-10-13T05:39:57.897Z,16.18
2022-10-13T05:41:59.557Z,16.20
2022-10-13T05:44:04.276Z,16.20
2022-10-13T05:46:06.564Z,16.22
2022-10-13T05:48:08.347Z,16.23
2022-10-13T05:50:10.240Z,16.21
2022-10-13T05:52:12.924Z,16.20
2022-10-13T05:54:21.659Z,16.20
2022-10-13T05:56:27.206Z,16.20
2022-10-13T05:58:28.866Z,16.20
2022-10-13T06:00:30.637Z,16.25
2022-10-13T06:02:37.867Z,16.22
2022-10-13T06:04:44.450Z,16.26
2022-10-13T06:06:48.508Z,16.26
2022-10-13T06:08:51.051Z,16.27
2022-10-13T06:10:52.900Z,16.28
2022-10-13T06:12:54.680Z,16.29
2022-10-13T06:14:56.471Z,16.33
2022-10-13T06:16:58.136Z,16.31
2022-10-13T06:19:07.123Z,16.29
2022-10-13T06:21:08.844Z,16.28
2022-10-13T06:23:10.629Z,16.29
2022-10-13T06:25:12.320Z,16.30
2022-10-13T06:27:14.312Z,16.27
2022-10-13T06:29:15.999Z,16.29
2022-10-13T06:31:17.792Z,16.29
2022-10-13T06:33:20.862Z,16.28
2022-10-13T06:35:23.748Z,16.27
2022-10-13T06:37:27.493Z,16.30
2022-10-13T06:39:29.318Z,16.27
2022-10-13T06:41:30.943Z,16.27
2022-10-13T06:43:39.906Z,16.21
2022-10-13T06:45:41.985Z,16.21
2022-10-13T06:47:44.098Z,16.21
2022-10-13T06:49:45.860Z,16.19
2022-10-13T06:51:47.547Z,16.17
2022-10-13T06:53:49.344Z,16.15
2022-10-13T06:55:52.586Z,16.13
2022-10-13T06:57:54.398Z,16.10
2022-10-13T06:59:56.163Z,16.11
2022-10-13T07:01:57.894Z,16.08
2022-10-13T07:03:59.617Z,16.02
2022-10-13T07:06:05.987Z,15.99
2022-10-13T07:08:07.618Z,16.03
2022-10-13T07:10:10.281Z,16.08
2022-10-13T07:12:13.676Z,15.95
2022-10-13T07:14:15.352Z,15.92
2022-10-13T07:16:17.083Z,15.94
2022-10-13T07:18:18.766Z,15.94
2022-10-13T07:20:21.784Z,15.94
2022-10-13T07:22:23.405Z,15.97
2022-10-13T07:24:25.657Z,15.99
2022-10-13T07:26:27.369Z,15.95
2022-10-13T07:28:29.296Z,15.92
2022-10-13T07:30:31.001Z,15.88
2022-10-13T07:32:32.943Z,15.91
2022-10-13T07:34:34.698Z,15.90
2022-10-13T07:36:37.856Z,15.84
2022-10-13T07:38:40.299Z,15.87
2022-10-13T07:40:41.960Z,15.87
2022-10-13T07:42:43.561Z,15.85
2022-10-13T07:44:45.272Z,15.96
2022-10-13T07:46:46.902Z,15.98
2022-10-13T07:48:48.707Z,15.99
2022-10-13T07:50:50.456Z,16.02
2022-10-13T07:52:52.108Z,15.97
2022-10-13T07:54:54.170Z,16.06
2022-10-13T07:56:56.258Z,16.08
2022-10-13T07:59:09.753Z,16.11
2022-10-13T08:01:12.799Z,16.12
2022-10-13T08:03:14.463Z,16.16
2022-10-13T08:05:16.244Z,16.15
2022-10-13T08:07:18.256Z,16.21
2022-10-13T08:09:20.229Z,16.22
2022-10-13T08:11:21.909Z,16.21
2022-10-13T08:13:24.469Z,16.25
2022-10-13T08:15:26.116Z,16.24
2022-10-13T08:17:27.823Z,16.24
2022-10-13T08:19:29.509Z,16.31
2022-10-13T08:23:52.800Z,16.36
2022-10-13T08:25:54.568Z,16.20
2022-10-13T08:28:00.294Z,16.24
2022-10-13T08:30:02.385Z,16.20
2022-10-13T08:32:04.259Z,16.26
2022-10-13T08:34:05.894Z,16.34
2022-10-13T08:36:08.790Z,16.33
2022-10-13T08:38:10.618Z,16.39
2022-10-13T08:40:17.676Z,16.38
2022-10-13T08:42:22.451Z,16.48
2022-10-13T08:45:21.779Z,16.47
2022-10-13T08:47:08.408Z,16.56
2022-10-13T08:49:18.233Z,16.53
2022-10-13T08:51:20.384Z,16.59
2022-10-13T08:53:29.696Z,16.58
2022-10-13T08:56:13.115Z,16.65
2022-10-13T08:58:17.295Z,16.67
2022-10-13T09:00:19.005Z,16.67
2022-10-13T09:02:31.078Z,16.70
2022-10-13T09:04:41.147Z,16.71
2022-10-13T09:07:07.967Z,16.74
2022-10-13T09:09:16.848Z,16.74
2022-10-13T09:11:18.760Z,16.76
2022-10-13T09:13:20.822Z,16.74
2022-10-13T09:15:22.511Z,16.73
2022-10-13T09:17:28.995Z,16.70
2022-10-13T09:19:36.611Z,16.68
2022-10-13T09:21:38.531Z,16.57
2022-10-13T09:23:41.954Z,16.56
2022-10-13T09:25:49.425Z,16.56
2022-10-13T09:27:53.712Z,16.58
2022-10-13T09:29:55.343Z,16.61
2022-10-13T09:32:20.344Z,16.63
2022-10-13T09:34:24.184Z,16.62
2022-10-13T09:36:25.894Z,16.63
2022-10-13T09:38:28.195Z,16.63
2022-10-13T09:40:32.462Z,16.64
2022-10-13T09:42:34.283Z,16.65
2022-10-13T09:44:36.014Z,16.62
2022-10-13T09:46:51.738Z,16.59
2022-10-13T09:49:19.257Z,16.54
2022-10-13T09:51:42.895Z,16.49
2022-10-13T09:53:47.650Z,16.45
2022-10-13T09:55:49.769Z,16.51
2022-10-13T09:57:55.469Z,16.48
2022-10-13T10:00:21.516Z,16.43
2022-10-13T10:02:45.671Z,16.45
2022-10-13T10:04:47.515Z,16.44
2022-10-13T10:06:49.176Z,16.43
2022-10-13T10:09:33.275Z,16.45
2022-10-13T10:11:43.490Z,16.43
2022-10-13T10:13:45.177Z,16.41
2022-10-13T10:15:55.952Z,16.42
2022-10-13T10:18:03.765Z,16.42
2022-10-13T10:20:41.067Z,16.42
2022-10-13T10:23:08.083Z,16.39
2022-10-13T10:25:40.345Z,16.43
2022-10-13T10:27:59.751Z,16.41
2022-10-13T10:30:05.964Z,16.40
2022-10-13T10:32:25.900Z,16.35
2022-10-13T10:34:35.024Z,16.38
2022-10-13T10:36:53.264Z,16.39
2022-10-13T10:39:31.049Z,16.40
2022-10-13T10:41:47.824Z,16.39
2022-10-13T10:44:11.359Z,16.36
2022-10-13T10:46:21.615Z,16.42
2022-10-13T10:48:27.072Z,16.41
2022-10-13T10:50:30.929Z,16.41
2022-10-13T10:52:56.528Z,16.43
2022-10-13T10:55:18.001Z,16.45
2022-10-13T10:57:28.542Z,16.46
2022-10-13T10:59:36.315Z,16.45
2022-10-13T11:01:42.726Z,16.46
2022-10-13T11:03:58.486Z,16.48
2022-10-13T11:06:00.133Z,16.50
2022-10-13T11:08:01.829Z,16.50
2022-10-13T11:10:27.460Z,16.50
2022-10-13T11:12:50.639Z,16.54
2022-10-13T11:14:55.091Z,16.56
2022-10-13T11:17:03.624Z,16.58
2022-10-13T11:19:23.657Z,16.59
2022-10-13T11:21:26.287Z,16.61
2022-10-13T11:23:32.898Z,16.59
2022-10-13T11:25:41.975Z,16.62
2022-10-13T11:27:44.321Z,16.64
2022-10-13T11:29:57.969Z,16.67
2022-10-13T11:31:59.801Z,16.70
2022-10-13T11:34:02.189Z,16.62
2022-10-13T11:36:28.381Z,16.69
2022-10-13T11:38:37.116Z,16.74
2022-10-13T11:40:47.808Z,16.76
2022-10-13T11:43:27.701Z,16.78
2022-10-13T11:45:58.365Z,16.84
2022-10-13T11:48:21.501Z,16.92
2022-10-13T11:50:52.212Z,16.98
2022-10-13T11:53:18.750Z,17.03
2022-10-13T11:55:31.003Z,17.12
2022-10-13T11:57:33.021Z,17.17
2022-10-13T11:59:37.729Z,17.23
2022-10-13T12:01:44.336Z,17.23
2022-10-13T12:03:47.601Z,17.32
2022-10-13T12:05:51.944Z,17.35
2022-10-13T12:07:57.468Z,17.46
2022-10-13T12:10:28.961Z,17.55
2022-10-13T12:12:32.387Z,17.68
2022-10-13T12:14:45.801Z,17.79
2022-10-13T12:16:57.860Z,17.83
2022-10-13T12:19:26.117Z,17.93
2022-10-13T12:21:28.928Z,18.04
2022-10-13T12:23:32.641Z,18.16
2022-10-13T12:25:34.330Z,18.31
2022-10-13T12:27:47.339Z,18.41
2022-10-13T12:29:49.007Z,18.48
2022-10-13T12:31:51.937Z,18.57
2022-10-13T12:33:59.015Z,18.65
2022-10-13T12:36:17.061Z,18.72
2022-10-13T12:38:21.100Z,18.79
2022-10-13T12:40:27.175Z,18.82
2022-10-13T12:42:34.870Z,18.92
2022-10-13T12:44:37.030Z,18.82
2022-10-13T12:46:43.008Z,18.91
2022-10-13T12:48:45.275Z,18.97
2022-10-13T12:50:47.009Z,18.91
2022-10-13T12:52:50.553Z,18.81
2022-10-13T12:54:57.871Z,18.82
2022-10-13T12:57:04.247Z,18.75
2022-10-13T12:59:25.797Z,18.71
2022-10-13T13:01:30.938Z,18.59
2022-10-13T13:03:32.965Z,18.58
2022-10-13T13:05:40.811Z,18.43
2022-10-13T13:07:52.675Z,18.42
2022-10-13T13:10:19.181Z,18.43
2022-10-13T13:12:23.717Z,18.38
2022-10-13T13:14:38.581Z,18.27
2022-10-13T13:16:40.320Z,18.30
2022-10-13T13:18:44.752Z,18.17
2022-10-13T13:20:46.423Z,18.26
2022-10-13T13:22:48.206Z,18.09
2022-10-13T13:24:51.186Z,18.16
2022-10-13T13:26:53.478Z,18.13
2022-10-13T13:28:56.441Z,18.14
2022-10-13T13:30:58.750Z,18.12
2022-10-13T13:33:00.456Z,18.14
2022-10-13T13:35:02.128Z,18.16
2022-10-13T13:37:03.740Z,18.27
2022-10-13T13:39:16.381Z,18.54
2022-10-13T13:41:18.403Z,18.73
2022-10-13T13:43:20.126Z,18.77
2022-10-13T13:45:25.000Z,18.91
2022-10-13T13:47:28.999Z,19.07
2022-10-13T13:49:30.759Z,19.17
2022-10-13T13:51:32.444Z,19.40
2022-10-13T13:53:34.064Z,19.44
2022-10-13T13:55:35.918Z,19.56
2022-10-13T13:57:37.578Z,19.72
2022-10-13T13:59:40.768Z,19.81
2022-10-13T14:01:42.462Z,19.96
2022-10-13T14:03:44.190Z,20.09
2022-10-13T14:05:45.842Z,20.18
2022-10-13T14:07:47.467Z,20.25
2022-10-13T14:09:49.155Z,20.37
2022-10-13T14:11:50.871Z,20.39
2022-10-13T14:13:52.446Z,20.34
2022-10-13T14:16:01.428Z,20.53
2022-10-13T14:18:03.088Z,20.65
2022-10-13T14:20:05.234Z,20.52
2022-10-13T14:22:09.480Z,20.46
2022-10-13T14:24:11.687Z,20.24
2022-10-13T14:26:14.292Z,20.30
2022-10-13T14:28:18.207Z,20.19
2022-10-13T14:30:20.320Z,20.24
2022-10-13T14:32:22.484Z,20.45
2022-10-13T14:34:24.689Z,20.44
2022-10-13T14:36:26.369Z,20.55
2022-10-13T14:38:28.359Z,20.42
2022-10-13T14:40:30.002Z,20.45
2022-10-13T14:42:31.665Z,20.49
2022-10-13T14:44:34.474Z,20.62
2022-10-13T14:46:36.096Z,20.51
2022-10-13T14:48:37.900Z,20.72
2022-10-13T14:50:39.555Z,20.65
2022-10-13T14:52:41.164Z,20.73
2022-10-13T14:54:44.982Z,20.77
2022-10-13T14:56:46.923Z,20.87
2022-10-13T14:58:50.087Z,20.91
2022-10-13T15:00:53.617Z,20.85
2022-10-13T15:02:55.242Z,20.72
2022-10-13T15:04:57.934Z,20.89
2022-10-13T15:06:59.657Z,20.93
2022-10-13T15:09:12.951Z,21.02
2022-10-13T15:11:15.465Z,21.09
2022-10-13T15:13:17.165Z,21.09
2022-10-13T15:15:19.830Z,21.11
2022-10-13T15:17:21.475Z,21.01
2022-10-13T15:19:23.214Z,21.19
2022-10-13T15:21:25.475Z,20.92
2022-10-13T15:23:27.166Z,20.93
2022-10-13T15:25:28.773Z,20.83
2022-10-13T15:27:30.482Z,20.87
2022-10-13T15:29:32.161Z,20.98
2022-10-13T15:31:33.849Z,20.92
2022-10-13T15:33:35.723Z,20.96
2022-10-13T15:35:37.360Z,20.75
2022-10-13T15:37:39.023Z,20.75
2022-10-13T15:39:40.624Z,20.70
2022-10-13T15:41:42.456Z,20.74
2022-10-13T15:43:44.347Z,20.58
2022-10-13T15:45:55.550Z,20.62
2022-10-13T15:47:57.808Z,20.53
2022-10-13T15:49:59.420Z,20.56
2022-10-13T15:52:01.060Z,20.58
2022-10-13T15:54:02.731Z,20.42
2022-10-13T15:56:04.444Z,20.35
2022-10-13T15:58:10.086Z,20.45
2022-10-13T16:00:16.041Z,20.33
2022-10-13T16:02:18.010Z,20.28
2022-10-13T16:04:19.941Z,20.19
2022-10-13T16:06:22.536Z,20.06
2022-10-13T16:08:24.189Z,20.12
2022-10-13T16:10:39.427Z,19.95
2022-10-13T16:12:46.844Z,19.98
2022-10-13T16:14:51.570Z,19.90
2022-10-13T16:16:53.270Z,19.78
2022-10-13T16:18:55.040Z,19.76
2022-10-13T16:20:57.061Z,19.70
2022-10-13T16:22:58.784Z,19.68
2022-10-13T16:25:00.437Z,19.56
2022-10-13T16:27:02.137Z,19.59
2022-10-13T16:29:06.922Z,19.51
2022-10-13T16:31:13.996Z,19.55
2022-10-13T16:33:15.680Z,19.45
2022-10-13T16:35:17.535Z,19.40
2022-10-13T16:37:19.731Z,19.39
2022-10-13T16:39:23.866Z,19.30
2022-10-13T16:41:25.876Z,19.30
2022-10-13T16:43:29.455Z,19.28
2022-10-13T16:45:55.071Z,19.20
2022-10-13T16:47:53.018Z,19.23
2022-10-13T16:49:54.687Z,19.15
2022-10-13T16:51:56.428Z,19.15
2022-10-13T16:54:03.862Z,19.15
2022-10-13T16:56:07.935Z,19.14
2022-10-13T16:58:10.088Z,19.13
2022-10-13T17:00:12.617Z,19.12
2022-10-13T17:02:15.247Z,19.04
2022-10-13T17:04:21.883Z,19.08
2022-10-13T17:06:26.898Z,19.03
2022-10-13T17:08:30.198Z,19.01
2022-10-13T17:10:31.865Z,18.95
2022-10-13T17:12:33.939Z,18.95
2022-10-13T17:14:35.652Z,18.95
2022-10-13T17:16:37.310Z,18.96
2022-10-13T17:18:38.945Z,18.92
2022-10-13T17:20:41.274Z,18.89
2022-10-13T17:22:42.916Z,18.88
2022-10-13T17:24:48.584Z,18.83
2022-10-13T17:26:50.349Z,18.81
2022-10-13T17:28:52.179Z,18.82
2022-10-13T17:31:02.291Z,18.80
2022-10-13T17:33:04.625Z,18.78
2022-10-13T17:35:07.675Z,18.76
2022-10-13T17:37:09.367Z,18.74
2022-10-13T17:39:14.337Z,18.74
2022-10-13T17:41:16.687Z,18.70
2022-10-13T17:43:18.379Z,18.69
2022-10-13T17:45:20.066Z,18.68
2022-10-13T17:47:21.866Z,18.64
2022-10-13T17:49:24.286Z,18.64
2022-10-13T17:51:26.002Z,18.64
2022-10-13T17:53:27.663Z,18.63
2022-10-13T17:55:30.781Z,18.60
2022-10-13T17:57:32.421Z,18.58
2022-10-13T17:59:34.081Z,18.56
2022-10-13T18:01:36.066Z,18.56
2022-10-13T18:03:39.070Z,18.48
2022-10-13T18:05:43.574Z,18.38
2022-10-13T18:07:45.202Z,18.42
2022-10-13T18:09:46.832Z,18.44
2022-10-13T18:11:50.943Z,18.45
2022-10-13T18:13:52.923Z,18.46
2022-10-13T18:15:54.620Z,18.43
2022-10-13T18:17:56.340Z,18.33
2022-10-13T18:19:58.685Z,18.35
2022-10-13T18:22:00.286Z,18.32
2022-10-13T18:24:02.579Z,18.30
2022-10-13T18:26:07.247Z,18.29
2022-10-13T18:28:08.884Z,18.26
2022-10-13T18:30:11.080Z,18.26
2022-10-13T18:32:12.729Z,18.27
2022-10-13T18:34:17.034Z,18.21
2022-10-13T18:36:23.437Z,18.21
2022-10-13T18:38:26.417Z,18.17
2022-10-13T18:40:28.610Z,18.14
2022-10-13T18:42:30.556Z,18.13
2022-10-13T18:44:32.179Z,18.13
2022-10-13T18:46:35.961Z,18.01
2022-10-13T18:48:37.681Z,17.96
2022-10-13T18:50:39.293Z,17.98
2022-10-13T18:52:40.891Z,17.92
2022-10-13T18:54:42.556Z,17.98
2022-10-13T18:56:44.230Z,17.99
2022-10-13T18:58:46.416Z,17.94
2022-10-13T19:00:48.084Z,17.88
2022-10-13T19:02:51.847Z,17.83
2022-10-13T19:04:53.534Z,17.80
2022-10-13T19:06:55.176Z,17.78
2022-10-13T19:09:09.498Z,17.82
2022-10-13T19:11:16.217Z,17.76
2022-10-13T19:13:18.062Z,17.77
2022-10-13T19:15:19.681Z,17.75
2022-10-13T19:17:21.539Z,17.70
2022-10-13T19:19:23.448Z,17.72
2022-10-13T19:21:25.215Z,17.69
2022-10-13T19:23:26.932Z,17.71
2022-10-13T19:25:28.615Z,17.68
2022-10-13T19:27:30.300Z,17.64
2022-10-13T19:29:32.848Z,17.65
2022-10-13T19:31:36.187Z,17.58
2022-10-13T19:33:44.275Z,17.57
2022-10-13T19:35:49.104Z,17.48
2022-10-13T19:37:50.848Z,17.47
2022-10-13T19:39:52.470Z,17.55
2022-10-13T19:41:56.559Z,17.48
2022-10-13T19:43:59.283Z,17.51
2022-10-13T19:46:01.246Z,17.51
2022-10-13T19:48:02.930Z,17.52
2022-10-13T19:50:04.825Z,17.52
2022-10-13T19:52:06.564Z,17.49
2022-10-13T19:54:08.723Z,17.51
2022-10-13T19:56:23.024Z,17.49
2022-10-13T19:58:24.673Z,17.48
2022-10-13T20:00:26.384Z,17.48
2022-10-13T20:02:28.023Z,17.46
2022-10-13T20:04:29.751Z,17.36
2022-10-13T20:06:31.396Z,17.34
2022-10-13T20:08:33.402Z,17.29
2022-10-13T20:10:40.963Z,17.28
2022-10-13T20:12:42.654Z,17.28
2022-10-13T20:14:44.288Z,17.24
2022-10-13T20:16:45.976Z,17.18
2022-10-13T20:18:52.727Z,17.20
2022-10-13T20:20:54.383Z,17.15
2022-10-13T20:22:56.044Z,17.22
2022-10-13T20:24:57.897Z,17.16
2022-10-13T20:26:59.527Z,17.13
2022-10-13T20:29:07.592Z,17.06
2022-10-13T20:31:10.734Z,17.09
2022-10-13T20:33:12.386Z,17.01
2022-10-13T20:35:14.140Z,17.03
2022-10-13T20:37:16.203Z,17.03
2022-10-13T20:39:17.925Z,17.06
2022-10-13T20:41:22.491Z,17.07
2022-10-13T20:43:25.912Z,17.09
2022-10-13T20:45:27.639Z,17.11
2022-10-13T20:47:29.253Z,17.12
2022-10-13T20:49:30.945Z,17.12
2022-10-13T20:51:32.597Z,17.13
2022-10-13T20:53:35.977Z,17.08
2022-10-13T20:55:41.757Z,17.09
2022-10-13T20:57:43.620Z,17.09
2022-10-13T20:59:45.280Z,17.08
2022-10-13T21:01:46.942Z,17.08
2022-10-13T21:03:54.933Z,17.08
2022-10-13T21:05:57.283Z,17.07
2022-10-13T21:07:58.970Z,17.08
2022-10-13T21:10:00.569Z,17.09
2022-10-13T21:12:02.211Z,17.10
2022-10-13T21:14:06.932Z,17.12
2022-10-13T21:16:11.324Z,17.09
2022-10-13T21:18:13.962Z,17.07
2022-10-13T21:20:15.710Z,17.05
2022-10-13T21:22:17.359Z,17.03
2022-10-13T21:24:18.964Z,17.07
2022-10-13T21:26:22.473Z,17.05
2022-10-13T21:28:24.266Z,17.01
2022-10-13T21:30:26.893Z,17.01
2022-10-13T21:32:30.296Z,16.99
2022-10-13T21:34:31.962Z,16.98
2022-10-13T21:36:34.244Z,16.94
2022-10-13T21:38:36.214Z,16.93
2022-10-13T21:40:38.177Z,16.90
2022-10-13T21:42:39.965Z,16.88
2022-10-13T21:44:41.768Z,16.85
2022-10-13T21:46:43.480Z,16.86
2022-10-13T21:48:46.655Z,16.81
2022-10-13T21:50:48.336Z,16.77
2022-10-13T21:52:49.978Z,16.78
2022-10-13T21:54:52.517Z,16.78
2022-10-13T21:56:54.143Z,16.73
2022-10-13T21:58:56.198Z,16.76
2022-10-13T22:01:00.458Z,16.76
2022-10-13T22:03:02.186Z,16.72
2022-10-13T22:05:04.163Z,16.73
2022-10-13T22:07:06.225Z,16.71
2022-10-13T22:09:12.264Z,16.68
2022-10-13T22:11:15.694Z,16.64
2022-10-13T22:13:17.323Z,16.65
2022-10-13T22:15:18.936Z,16.64
2022-10-13T22:17:20.960Z,16.57
2022-10-13T22:19:23.139Z,16.54
2022-10-13T22:21:31.407Z,16.48
2022-10-13T22:23:33.110Z,16.51
2022-10-13T22:25:34.832Z,16.52
2022-10-13T22:27:36.464Z,16.51
2022-10-13T22:29:38.133Z,16.50
2022-10-13T22:31:39.807Z,16.48
2022-10-13T22:33:43.038Z,16.51
2022-10-13T22:35:46.757Z,16.49
2022-10-13T22:37:48.412Z,16.48
2022-10-13T22:39:51.777Z,16.49
2022-10-13T22:41:53.680Z,16.46
2022-10-13T22:43:58.083Z,16.47
2022-10-13T22:46:01.983Z,16.49
2022-10-13T22:48:03.875Z,16.49
2022-10-13T22:50:05.878Z,16.44
2022-10-13T22:52:07.527Z,16.46
2022-10-13T22:54:09.953Z,16.44
2022-10-13T22:56:14.754Z,16.46
2022-10-13T22:58:16.400Z,16.45
2022-10-13T23:00:18.272Z,16.44
2022-10-13T23:02:19.931Z,16.35
2022-10-13T23:04:21.576Z,16.33
2022-10-13T23:06:27.508Z,16.22
2022-10-13T23:08:29.448Z,16.18
2022-10-13T23:10:31.055Z,16.16
2022-10-13T23:12:32.793Z,16.22
2022-10-13T23:14:34.446Z,16.20
2022-10-13T23:16:36.471Z,16.22
2022-10-13T23:18:39.290Z,16.21
2022-10-13T23:20:42.270Z,16.19
2022-10-13T23:22:43.920Z,16.19
2022-10-13T23:24:45.585Z,16.20
2022-10-13T23:26:47.289Z,16.15
2022-10-13T23:28:48.956Z,16.19
2022-10-13T23:30:50.690Z,16.14
2022-10-13T23:32:54.719Z,16.12
2022-10-13T23:34:56.406Z,16.08
2022-10-13T23:36:58.076Z,16.13
2022-10-13T23:39:06.979Z,16.14
2022-10-13T23:41:11.474Z,16.11
2022-10-13T23:43:13.145Z,16.17
2022-10-13T23:45:14.802Z,16.14
2022-10-13T23:47:16.513Z,16.09
2022-10-13T23:49:18.159Z,16.07
2022-10-13T23:51:23.186Z,16.09
2022-10-13T23:53:24.889Z,15.96
2022-10-13T23:55:26.624Z,15.89
2022-10-13T23:57:29.855Z,15.93
2022-10-13T23:59:31.607Z,15.91
